createdAt,value
2022-09-07T00:00:32.274Z,14.30
2022-09-07T00:01:11.141Z,15.20
2022-09-07T00:01:44.337Z,15.10
2022-09-07T00:02:17.688Z,15.00
2022-09-07T00:02:51.107Z,15.40
2022-09-07T00:03:24.790Z,16.70
2022-09-07T00:03:58.466Z,16.20
2022-09-07T00:04:32.153Z,15.10
2022-09-07T00:05:06.387Z,16.10
2022-09-07T00:05:47.501Z,16.50
2022-09-07T00:06:20.750Z,16.20
2022-09-07T00:06:53.960Z,16.40
2022-09-07T00:07:27.188Z,15.80
2022-09-07T00:08:00.769Z,16.10
2022-09-07T00:08:34.185Z,16.70
2022-09-07T00:09:07.618Z,15.90
2022-09-07T00:09:41.577Z,15.50
2022-09-07T00:10:14.880Z,15.80
2022-09-07T00:11:00.192Z,16.00
2022-09-07T00:11:33.432Z,15.60
2022-09-07T00:12:06.653Z,16.80
2022-09-07T00:12:40.152Z,16.20
2022-09-07T00:13:13.326Z,16.00
2022-09-07T00:13:49.311Z,16.20
2022-09-07T00:14:22.527Z,16.90
2022-09-07T00:14:55.865Z,15.20
2022-09-07T00:15:29.021Z,16.10
2022-09-07T00:16:29.979Z,16.00
2022-09-07T00:17:03.405Z,16.10
2022-09-07T00:17:37.061Z,16.80
2022-09-07T00:18:10.337Z,15.70
2022-09-07T00:18:46.211Z,15.90
2022-09-07T00:19:20.113Z,16.60
2022-09-07T00:19:53.353Z,17.00
2022-09-07T00:20:26.598Z,16.20
2022-09-07T00:21:05.739Z,16.40
2022-09-07T00:21:39.186Z,16.40
2022-09-07T00:22:12.638Z,16.60
2022-09-07T00:22:46.612Z,15.90
2022-09-07T00:23:19.913Z,16.90
2022-09-07T00:23:54.479Z,17.20
2022-09-07T00:24:27.911Z,15.40
2022-09-07T00:25:01.046Z,17.80
2022-09-07T00:25:40.205Z,15.50
2022-09-07T00:26:16.643Z,15.30
2022-09-07T00:26:49.992Z,15.00
2022-09-07T00:27:23.845Z,15.30
2022-09-07T00:27:57.083Z,15.10
2022-09-07T00:28:31.531Z,15.60
2022-09-07T00:29:05.111Z,15.90
2022-09-07T00:29:38.502Z,16.70
2022-09-07T00:30:11.967Z,17.40
2022-09-07T00:30:45.293Z,16.50
2022-09-07T00:31:21.405Z,16.10
2022-09-07T00:31:54.701Z,16.90
2022-09-07T00:32:28.004Z,16.50
2022-09-07T00:33:01.140Z,16.90
2022-09-07T00:33:34.333Z,16.40
2022-09-07T00:34:07.630Z,15.40
2022-09-07T00:34:41.216Z,15.60
2022-09-07T00:35:14.599Z,14.80
2022-09-07T00:35:47.865Z,14.60
2022-09-07T00:36:23.099Z,14.40
2022-09-07T00:36:56.228Z,14.20
2022-09-07T00:37:29.537Z,15.10
2022-09-07T00:38:02.733Z,14.30
2022-09-07T00:38:36.664Z,13.90
2022-09-07T00:39:10.005Z,14.10
2022-09-07T00:39:43.583Z,14.30
2022-09-07T00:40:16.873Z,14.50
2022-09-07T00:40:50.261Z,13.60
2022-09-07T00:41:24.628Z,14.10
2022-09-07T00:41:57.885Z,14.30
2022-09-07T00:42:31.066Z,14.40
2022-09-07T00:43:06.320Z,13.60
2022-09-07T00:44:19.728Z,14.30
2022-09-07T00:44:55.736Z,14.30
2022-09-07T00:45:29.880Z,13.50
2022-09-07T00:46:05.111Z,13.50
2022-09-07T00:46:38.419Z,14.40
2022-09-07T00:47:21.484Z,13.70
2022-09-07T00:48:03.865Z,13.70
2022-09-07T00:48:55.695Z,14.00
2022-09-07T00:49:29.973Z,13.50
2022-09-07T00:50:09.806Z,14.50
2022-09-07T00:50:56.844Z,15.00
2022-09-07T00:51:39.456Z,14.60
2022-09-07T00:52:14.163Z,14.70
2022-09-07T00:52:53.163Z,14.50
2022-09-07T00:53:33.533Z,14.20
2022-09-07T00:54:12.421Z,12.70
2022-09-07T00:54:49.630Z,12.70
2022-09-07T00:55:23.259Z,14.80
2022-09-07T00:55:58.388Z,14.50
2022-09-07T00:56:35.698Z,14.10
2022-09-07T00:57:09.288Z,14.60
2022-09-07T00:57:48.366Z,14.00
2022-09-07T00:58:22.969Z,14.40
2022-09-07T00:58:56.974Z,14.90
2022-09-07T00:59:37.947Z,14.60
2022-09-07T01:00:12.001Z,14.30
2022-09-07T01:00:46.802Z,14.80
2022-09-07T01:01:20.741Z,15.60
2022-09-07T01:01:54.226Z,14.30
2022-09-07T01:02:28.044Z,14.40
2022-09-07T01:03:03.703Z,14.50
2022-09-07T01:03:42.491Z,16.20
2022-09-07T01:04:17.061Z,15.30
2022-09-07T01:04:54.638Z,14.50
2022-09-07T01:05:45.680Z,14.10
2022-09-07T01:06:23.149Z,13.20
2022-09-07T01:06:57.449Z,13.30
2022-09-07T01:07:31.141Z,13.10
2022-09-07T01:08:05.760Z,12.90
2022-09-07T01:08:39.361Z,13.00
2022-09-07T01:09:18.770Z,12.80
2022-09-07T01:09:52.864Z,12.80
2022-09-07T01:10:31.909Z,13.30
2022-09-07T01:11:05.443Z,12.20
2022-09-07T01:11:39.580Z,12.40
2022-09-07T01:12:13.382Z,12.70
2022-09-07T01:12:46.692Z,12.30
2022-09-07T01:13:19.837Z,13.00
2022-09-07T01:13:54.677Z,12.20
2022-09-07T01:14:41.805Z,13.40
2022-09-07T01:15:15.037Z,12.30
2022-09-07T01:16:12.712Z,12.80
2022-09-07T01:17:01.627Z,13.30
2022-09-07T01:18:04.199Z,12.00
2022-09-07T01:19:01.135Z,12.70
2022-09-07T01:20:12.085Z,12.00
2022-09-07T01:21:26.288Z,12.10
2022-09-07T01:22:36.777Z,13.80
2022-09-07T01:23:33.276Z,12.50
2022-09-07T01:24:28.528Z,12.50
2022-09-07T01:25:22.224Z,13.20
2022-09-07T01:26:30.492Z,12.70
2022-09-07T01:27:35.365Z,12.60
2022-09-07T01:28:25.922Z,12.80
2022-09-07T01:29:08.655Z,13.60
2022-09-07T01:30:08.674Z,13.90
2022-09-07T01:30:51.967Z,12.80
2022-09-07T01:31:45.825Z,12.60
2022-09-07T01:32:51.024Z,12.30
2022-09-07T01:34:05.425Z,11.80
2022-09-07T01:34:39.569Z,11.20
2022-09-07T01:35:29.566Z,10.60
2022-09-07T01:36:21.338Z,11.50
2022-09-07T01:37:13.236Z,11.20
2022-09-07T01:38:21.451Z,11.90
2022-09-07T01:38:59.355Z,12.40
2022-09-07T01:39:47.367Z,12.90
2022-09-07T01:40:41.376Z,13.20
2022-09-07T01:41:20.260Z,12.00
2022-09-07T01:42:01.735Z,13.20
2022-09-07T01:42:45.381Z,12.60
2022-09-07T01:43:45.666Z,11.70
2022-09-07T01:44:27.471Z,13.00
2022-09-07T01:45:03.612Z,12.60
2022-09-07T01:45:41.183Z,11.90
2022-09-07T01:46:23.129Z,12.80
2022-09-07T01:47:07.928Z,12.40
2022-09-07T01:47:48.616Z,12.60
2022-09-07T01:48:23.626Z,12.10
2022-09-07T01:49:05.057Z,12.10
2022-09-07T01:49:40.960Z,12.30
2022-09-07T01:50:38.054Z,12.30
2022-09-07T01:51:13.573Z,13.60
2022-09-07T01:51:50.353Z,12.50
2022-09-07T01:52:35.163Z,12.50
2022-09-07T01:53:22.220Z,13.50
2022-09-07T01:54:01.447Z,12.60
2022-09-07T01:54:55.492Z,13.10
2022-09-07T01:55:40.835Z,12.60
2022-09-07T01:56:42.887Z,12.20
2022-09-07T01:57:22.931Z,12.70
2022-09-07T01:58:09.150Z,12.10
2022-09-07T01:58:49.912Z,12.70
2022-09-07T01:59:28.978Z,13.10
2022-09-07T02:00:14.754Z,12.10
2022-09-07T02:00:55.407Z,14.30
2022-09-07T02:02:19.941Z,11.80
2022-09-07T02:03:00.354Z,12.00
2022-09-07T02:03:45.262Z,11.70
2022-09-07T02:04:28.121Z,11.80
2022-09-07T02:05:10.202Z,12.10
2022-09-07T02:05:58.816Z,11.50
2022-09-07T02:06:38.204Z,12.30
2022-09-07T02:07:25.684Z,11.20
2022-09-07T02:08:05.243Z,12.70
2022-09-07T02:08:46.285Z,12.20
2022-09-07T02:09:38.262Z,12.90
2022-09-07T02:10:17.281Z,12.90
2022-09-07T02:11:02.619Z,12.90
2022-09-07T02:11:45.523Z,12.10
2022-09-07T02:12:35.498Z,12.00
2022-09-07T02:13:40.745Z,11.70
2022-09-07T02:14:30.857Z,11.60
2022-09-07T02:15:20.685Z,12.40
2022-09-07T02:16:00.304Z,12.20
2022-09-07T02:16:37.403Z,12.80
2022-09-07T02:17:34.507Z,11.50
2022-09-07T02:18:10.474Z,12.30
2022-09-07T02:18:50.302Z,13.10
2022-09-07T02:19:27.309Z,13.20
2022-09-07T02:20:15.642Z,13.10
2022-09-07T02:20:53.851Z,12.70
2022-09-07T02:21:34.546Z,12.40
2022-09-07T02:22:14.239Z,12.40
2022-09-07T02:22:53.073Z,13.30
2022-09-07T02:23:31.703Z,13.50
2022-09-07T02:24:11.428Z,14.50
2022-09-07T02:24:51.207Z,13.90
2022-09-07T02:25:33.286Z,14.10
2022-09-07T02:26:14.373Z,12.80
2022-09-07T02:26:53.443Z,13.90
2022-09-07T02:27:39.622Z,13.20
2022-09-07T02:28:22.408Z,12.70
2022-09-07T02:28:56.369Z,13.20
2022-09-07T02:29:31.103Z,12.50
2022-09-07T02:30:06.716Z,11.60
2022-09-07T02:30:40.689Z,12.50
2022-09-07T02:31:15.103Z,11.90
2022-09-07T02:31:49.687Z,11.60
2022-09-07T02:32:23.042Z,12.90
2022-09-07T02:32:56.656Z,13.20
2022-09-07T02:33:30.532Z,13.10
2022-09-07T02:34:04.312Z,12.40
2022-09-07T02:34:37.676Z,12.90
2022-09-07T02:35:11.189Z,13.30
2022-09-07T02:35:44.750Z,12.50
2022-09-07T02:36:20.431Z,12.20
2022-09-07T02:36:54.733Z,11.70
2022-09-07T02:37:29.095Z,13.30
2022-09-07T02:38:04.748Z,13.70
2022-09-07T02:38:38.227Z,13.40
2022-09-07T02:39:11.406Z,13.30
2022-09-07T02:39:44.913Z,13.20
2022-09-07T02:40:18.681Z,12.30
2022-09-07T02:40:53.738Z,14.00
2022-09-07T02:41:30.999Z,12.80
2022-09-07T02:42:04.476Z,13.30
2022-09-07T02:42:39.249Z,12.70
2022-09-07T02:43:12.480Z,12.40
2022-09-07T02:43:46.073Z,12.80
2022-09-07T02:44:28.500Z,12.10
2022-09-07T02:45:05.350Z,12.60
2022-09-07T02:46:19.217Z,13.00
2022-09-07T02:47:07.554Z,12.00
2022-09-07T02:47:50.257Z,12.70
2022-09-07T02:48:47.556Z,12.80
2022-09-07T02:49:29.486Z,13.20
2022-09-07T02:50:34.779Z,11.80
2022-09-07T02:51:18.612Z,12.50
2022-09-07T02:52:13.656Z,11.90
2022-09-07T02:52:58.735Z,11.70
2022-09-07T02:53:48.133Z,11.90
2022-09-07T02:54:40.062Z,11.00
2022-09-07T02:55:39.838Z,12.60
2022-09-07T02:56:18.725Z,12.10
2022-09-07T02:57:19.654Z,13.10
2022-09-07T02:58:14.086Z,12.10
2022-09-07T02:59:07.943Z,12.10
2022-09-07T02:59:59.841Z,12.70
2022-09-07T03:00:38.869Z,11.60
2022-09-07T03:01:47.341Z,12.10
2022-09-07T03:02:30.622Z,12.60
2022-09-07T03:03:22.725Z,12.00
2022-09-07T03:04:14.092Z,12.50
2022-09-07T03:05:06.361Z,12.10
2022-09-07T03:05:51.105Z,13.10
2022-09-07T03:06:41.039Z,11.90
2022-09-07T03:07:22.907Z,12.80
2022-09-07T03:08:18.527Z,12.20
2022-09-07T03:08:55.041Z,12.80
2022-09-07T03:09:32.849Z,11.70
2022-09-07T03:10:07.552Z,12.20
2022-09-07T03:10:41.765Z,12.70
2022-09-07T03:11:15.665Z,11.60
2022-09-07T03:11:49.791Z,11.70
2022-09-07T03:12:23.161Z,11.80
2022-09-07T03:12:56.215Z,11.10
2022-09-07T03:13:30.278Z,11.20
2022-09-07T03:14:18.742Z,11.60
2022-09-07T03:14:51.957Z,11.00
2022-09-07T03:15:27.331Z,10.50
2022-09-07T03:16:00.812Z,10.80
2022-09-07T03:16:34.037Z,11.20
2022-09-07T03:17:08.379Z,10.90
2022-09-07T03:17:42.764Z,9.90
2022-09-07T03:18:15.861Z,12.50
2022-09-07T03:18:49.358Z,12.40
2022-09-07T03:19:22.415Z,11.50
2022-09-07T03:19:55.758Z,11.90
2022-09-07T03:20:28.910Z,12.00
2022-09-07T03:21:01.979Z,12.20
2022-09-07T03:21:36.165Z,11.80
2022-09-07T03:22:09.412Z,11.50
2022-09-07T03:22:42.593Z,11.30
2022-09-07T03:23:15.813Z,12.40
2022-09-07T03:23:51.836Z,12.40
2022-09-07T03:24:25.347Z,11.60
2022-09-07T03:24:58.515Z,11.70
2022-09-07T03:25:31.630Z,12.70
2022-09-07T03:26:05.601Z,12.00
2022-09-07T03:26:42.039Z,11.70
2022-09-07T03:27:15.221Z,12.10
2022-09-07T03:27:48.527Z,12.10
2022-09-07T03:28:21.726Z,12.40
2022-09-07T03:28:54.815Z,10.90
2022-09-07T03:29:27.985Z,12.30
2022-09-07T03:30:01.418Z,13.30
2022-09-07T03:30:34.697Z,12.50
2022-09-07T03:31:07.938Z,11.80
2022-09-07T03:31:41.292Z,12.50
2022-09-07T03:32:14.402Z,12.40
2022-09-07T03:32:47.955Z,12.50
2022-09-07T03:33:21.181Z,13.20
2022-09-07T03:33:55.505Z,13.10
2022-09-07T03:34:28.876Z,12.40
2022-09-07T03:35:03.123Z,12.20
2022-09-07T03:35:36.523Z,11.80
2022-09-07T03:36:09.717Z,11.10
2022-09-07T03:36:43.340Z,12.30
2022-09-07T03:37:16.531Z,11.50
2022-09-07T03:37:49.692Z,11.40
2022-09-07T03:38:22.971Z,11.40
2022-09-07T03:38:56.264Z,10.10
2022-09-07T03:39:29.562Z,11.10
2022-09-07T03:40:04.918Z,11.30
2022-09-07T03:40:38.403Z,11.40
2022-09-07T03:41:12.405Z,11.40
2022-09-07T03:41:45.619Z,11.30
2022-09-07T03:42:19.482Z,11.70
2022-09-07T03:42:52.589Z,11.60
2022-09-07T03:43:26.414Z,11.40
2022-09-07T03:44:05.952Z,11.20
2022-09-07T03:44:39.227Z,11.50
2022-09-07T03:45:12.409Z,11.90
2022-09-07T03:45:45.778Z,11.40
2022-09-07T03:46:19.902Z,11.60
2022-09-07T03:46:53.374Z,10.70
2022-09-07T03:47:26.524Z,11.30
2022-09-07T03:47:59.722Z,12.40
2022-09-07T03:48:35.107Z,10.90
2022-09-07T03:49:08.275Z,11.40
2022-09-07T03:49:41.605Z,13.00
2022-09-07T03:50:14.905Z,11.90
2022-09-07T03:51:02.609Z,12.10
2022-09-07T03:51:35.723Z,13.10
2022-09-07T03:52:09.267Z,11.70
2022-09-07T03:52:42.592Z,12.10
2022-09-07T03:53:15.690Z,11.70
2022-09-07T03:53:48.981Z,11.60
2022-09-07T03:54:23.004Z,12.30
2022-09-07T03:54:56.267Z,11.50
2022-09-07T03:55:29.351Z,12.10
2022-09-07T03:56:05.246Z,12.00
2022-09-07T03:56:38.873Z,11.90
2022-09-07T03:57:12.357Z,11.70
2022-09-07T03:57:45.564Z,12.00
2022-09-07T03:58:18.756Z,11.60
2022-09-07T03:58:53.907Z,10.80
2022-09-07T03:59:27.393Z,11.30
2022-09-07T04:00:00.697Z,11.00
2022-09-07T04:00:34.196Z,11.70
2022-09-07T04:01:10.493Z,11.80
2022-09-07T04:01:43.686Z,12.40
2022-09-07T04:02:17.470Z,10.80
2022-09-07T04:02:50.851Z,11.80
2022-09-07T04:03:24.356Z,12.00
2022-09-07T04:04:02.151Z,12.00
2022-09-07T04:04:35.596Z,13.00
2022-09-07T04:05:09.257Z,12.20
2022-09-07T04:05:42.699Z,12.30
2022-09-07T04:06:16.850Z,12.60
2022-09-07T04:06:50.693Z,12.30
2022-09-07T04:07:24.028Z,12.60
2022-09-07T04:07:57.244Z,12.30
2022-09-07T04:08:33.312Z,12.70
2022-09-07T04:09:08.920Z,12.30
2022-09-07T04:09:42.353Z,12.40
2022-09-07T04:10:15.570Z,11.60
2022-09-07T04:10:48.600Z,12.50
2022-09-07T04:11:21.707Z,12.20
2022-09-07T04:11:55.006Z,12.50
2022-09-07T04:12:28.467Z,12.20
2022-09-07T04:13:01.665Z,11.60
2022-09-07T04:13:36.472Z,10.90
2022-09-07T04:14:11.744Z,10.90
2022-09-07T04:14:45.124Z,11.70
2022-09-07T04:15:18.845Z,11.70
2022-09-07T04:15:53.975Z,11.40
2022-09-07T04:16:28.782Z,12.00
2022-09-07T04:17:02.309Z,12.50
2022-09-07T04:17:35.809Z,11.70
2022-09-07T04:18:08.947Z,11.90
2022-09-07T04:18:42.169Z,12.50
2022-09-07T04:19:15.302Z,11.30
2022-09-07T04:19:48.585Z,11.60
2022-09-07T04:20:21.770Z,13.50
2022-09-07T04:20:59.087Z,12.90
2022-09-07T04:21:33.640Z,12.60
2022-09-07T04:22:06.885Z,12.40
2022-09-07T04:22:40.313Z,11.30
2022-09-07T04:23:13.760Z,12.00
2022-09-07T04:23:46.961Z,11.70
2022-09-07T04:24:20.200Z,11.90
2022-09-07T04:24:53.719Z,12.90
2022-09-07T04:25:27.244Z,12.30
2022-09-07T04:26:00.630Z,13.80
2022-09-07T04:26:36.625Z,12.90
2022-09-07T04:27:09.905Z,13.10
2022-09-07T04:27:43.361Z,13.20
2022-09-07T04:28:18.097Z,13.20
2022-09-07T04:28:51.629Z,13.90
2022-09-07T04:29:24.856Z,13.30
2022-09-07T04:29:58.115Z,13.50
2022-09-07T04:30:35.439Z,12.80
2022-09-07T04:31:08.996Z,12.40
2022-09-07T04:31:42.306Z,12.00
2022-09-07T04:32:16.081Z,11.90
2022-09-07T04:32:49.665Z,12.30
2022-09-07T04:33:23.232Z,11.40
2022-09-07T04:33:57.061Z,12.00
2022-09-07T04:34:30.358Z,10.70
2022-09-07T04:35:04.542Z,11.50
2022-09-07T04:35:39.401Z,11.90
2022-09-07T04:36:12.984Z,11.60
2022-09-07T04:36:46.498Z,11.40
2022-09-07T04:37:19.820Z,12.10
2022-09-07T04:37:52.836Z,11.70
2022-09-07T04:38:26.001Z,12.10
2022-09-07T04:39:01.599Z,12.80
2022-09-07T04:39:35.721Z,12.60
2022-09-07T04:40:09.600Z,12.10
2022-09-07T04:40:44.188Z,12.20
2022-09-07T04:41:18.962Z,11.70
2022-09-07T04:41:52.125Z,12.30
2022-09-07T04:42:25.380Z,13.00
2022-09-07T04:42:59.271Z,12.70
2022-09-07T04:43:33.042Z,13.50
2022-09-07T04:44:06.334Z,13.20
2022-09-07T04:44:39.429Z,12.70
2022-09-07T04:45:12.650Z,12.50
2022-09-07T04:45:45.846Z,12.60
2022-09-07T04:46:27.677Z,13.00
2022-09-07T04:47:01.019Z,12.00
2022-09-07T04:47:34.082Z,11.50
2022-09-07T04:48:07.605Z,12.10
2022-09-07T04:48:40.965Z,11.80
2022-09-07T04:49:14.338Z,11.70
2022-09-07T04:49:53.706Z,12.20
2022-09-07T04:50:26.932Z,13.00
2022-09-07T04:51:11.149Z,11.90
2022-09-07T04:51:44.692Z,13.00
2022-09-07T04:52:17.990Z,13.10
2022-09-07T04:52:51.163Z,12.10
2022-09-07T04:53:24.404Z,12.10
2022-09-07T04:53:59.888Z,12.40
2022-09-07T04:54:33.149Z,12.70
2022-09-07T04:55:07.107Z,13.10
2022-09-07T04:55:40.470Z,12.40
2022-09-07T04:56:16.953Z,12.90
2022-09-07T04:56:50.517Z,12.90
2022-09-07T04:57:26.171Z,13.70
2022-09-07T04:57:59.430Z,13.30
2022-09-07T04:58:32.694Z,13.10
2022-09-07T04:59:06.047Z,13.30
2022-09-07T04:59:39.181Z,14.30
2022-09-07T05:00:12.822Z,13.00
2022-09-07T05:00:46.223Z,12.70
2022-09-07T05:01:23.410Z,13.10
2022-09-07T05:01:56.556Z,13.00
2022-09-07T05:02:29.711Z,12.80
2022-09-07T05:03:02.938Z,13.40
2022-09-07T05:03:38.430Z,13.00
2022-09-07T05:04:11.617Z,13.00
2022-09-07T05:04:44.670Z,13.40
2022-09-07T05:05:17.918Z,12.10
2022-09-07T05:05:51.039Z,12.30
2022-09-07T05:06:24.373Z,13.40
2022-09-07T05:06:57.453Z,12.30
2022-09-07T05:07:30.792Z,13.00
2022-09-07T05:08:04.627Z,12.50
2022-09-07T05:08:41.771Z,12.30
2022-09-07T05:09:14.973Z,13.80
2022-09-07T05:09:48.549Z,13.00
2022-09-07T05:10:21.741Z,13.40
2022-09-07T05:10:56.112Z,13.40
2022-09-07T05:11:30.107Z,14.40
2022-09-07T05:12:03.801Z,13.00
2022-09-07T05:12:37.095Z,13.10
2022-09-07T05:13:10.174Z,13.40
2022-09-07T05:13:43.557Z,14.30
2022-09-07T05:14:16.858Z,14.00
2022-09-07T05:14:50.487Z,13.60
2022-09-07T05:15:23.759Z,13.80
2022-09-07T05:15:57.094Z,13.50
2022-09-07T05:16:31.758Z,13.80
2022-09-07T05:17:05.268Z,14.10
2022-09-07T05:17:38.420Z,13.80
2022-09-07T05:18:13.293Z,14.60
2022-09-07T05:18:54.452Z,13.60
2022-09-07T05:19:28.262Z,13.80
2022-09-07T05:20:01.598Z,13.90
2022-09-07T05:20:34.888Z,13.40
2022-09-07T05:21:17.135Z,13.60
2022-09-07T05:21:50.251Z,13.90
2022-09-07T05:22:25.495Z,14.00
2022-09-07T05:23:01.647Z,13.70
2022-09-07T05:23:34.956Z,11.80
2022-09-07T05:24:08.304Z,12.80
2022-09-07T05:24:41.536Z,12.10
2022-09-07T05:25:15.419Z,12.30
2022-09-07T05:25:49.400Z,11.50
2022-09-07T05:26:25.029Z,11.90
2022-09-07T05:26:59.900Z,12.60
2022-09-07T05:27:33.087Z,12.10
2022-09-07T05:28:06.196Z,12.00
2022-09-07T05:28:39.492Z,12.10
2022-09-07T05:30:06.995Z,11.60
2022-09-07T05:31:34.547Z,12.40
2022-09-07T05:32:07.994Z,12.40
2022-09-07T05:32:45.507Z,11.80
2022-09-07T05:33:18.649Z,12.60
2022-09-07T05:34:49.667Z,13.90
2022-09-07T05:35:24.461Z,11.70
2022-09-07T05:35:59.849Z,12.00
2022-09-07T05:36:35.948Z,12.00
2022-09-07T05:37:10.780Z,12.90
2022-09-07T05:37:43.936Z,13.00
2022-09-07T05:38:17.189Z,13.10
2022-09-07T05:38:50.339Z,13.20
2022-09-07T05:39:24.302Z,13.60
2022-09-07T05:39:57.598Z,12.40
2022-09-07T05:40:35.126Z,13.50
2022-09-07T05:41:15.803Z,12.80
2022-09-07T05:41:48.973Z,12.70
2022-09-07T05:42:22.582Z,12.60
2022-09-07T05:42:55.959Z,13.10
2022-09-07T05:43:31.273Z,13.10
2022-09-07T05:44:59.927Z,12.50
2022-09-07T05:45:33.250Z,12.30
2022-09-07T05:46:06.853Z,12.60
2022-09-07T05:46:40.505Z,11.80
2022-09-07T05:47:14.179Z,11.90
2022-09-07T05:47:50.950Z,12.60
2022-09-07T05:48:24.224Z,11.50
2022-09-07T05:48:57.491Z,11.90
2022-09-07T05:49:30.950Z,11.80
2022-09-07T05:50:06.159Z,11.60
2022-09-07T05:50:39.251Z,11.70
2022-09-07T05:51:13.741Z,12.10
2022-09-07T05:51:47.296Z,12.50
2022-09-07T05:52:20.978Z,11.80
2022-09-07T05:52:54.212Z,12.00
2022-09-07T05:53:27.956Z,11.00
2022-09-07T05:54:01.406Z,12.80
2022-09-07T05:54:35.158Z,11.10
2022-09-07T05:55:28.898Z,11.80
2022-09-07T05:56:07.043Z,12.70
2022-09-07T05:56:40.524Z,12.00
2022-09-07T05:57:14.247Z,12.50
2022-09-07T05:57:47.326Z,12.70
2022-09-07T05:58:20.615Z,13.20
2022-09-07T05:58:53.767Z,13.00
2022-09-07T05:59:26.817Z,12.80
2022-09-07T06:00:00.038Z,12.60
2022-09-07T06:00:34.162Z,11.60
2022-09-07T06:01:13.223Z,12.20
2022-09-07T06:01:46.916Z,11.90
2022-09-07T06:02:20.593Z,11.40
2022-09-07T06:02:53.995Z,11.70
2022-09-07T06:03:27.399Z,10.90
2022-09-07T06:04:00.796Z,11.70
2022-09-07T06:04:34.161Z,11.80
2022-09-07T06:05:08.746Z,11.80
2022-09-07T06:05:41.895Z,11.30
2022-09-07T06:06:19.235Z,10.80
2022-09-07T06:07:20.114Z,10.90
2022-09-07T06:07:48.813Z,10.30
2022-09-07T06:08:22.075Z,10.90
2022-09-07T06:08:55.322Z,10.30
2022-09-07T06:09:30.488Z,9.50
2022-09-07T06:10:57.863Z,9.60
2022-09-07T06:11:31.117Z,10.50
2022-09-07T06:12:05.793Z,10.00
2022-09-07T06:12:39.148Z,10.30
2022-09-07T06:13:12.382Z,10.70
2022-09-07T06:13:45.959Z,10.70
2022-09-07T06:14:19.154Z,10.00
2022-09-07T06:14:52.397Z,10.30
2022-09-07T06:15:25.474Z,11.50
2022-09-07T06:16:02.627Z,11.80
2022-09-07T06:16:35.915Z,10.10
2022-09-07T06:17:09.159Z,10.80
2022-09-07T06:17:42.434Z,11.40
2022-09-07T06:18:15.617Z,9.50
2022-09-07T06:18:50.456Z,9.80
2022-09-07T06:19:23.717Z,10.20
2022-09-07T06:19:57.564Z,9.30
2022-09-07T06:20:31.497Z,9.30
2022-09-07T06:21:19.097Z,9.80
2022-09-07T06:21:52.428Z,9.20
2022-09-07T06:22:30.128Z,10.20
2022-09-07T06:23:04.035Z,8.90
2022-09-07T06:23:39.422Z,8.70
2022-09-07T06:24:12.599Z,10.20
2022-09-07T06:24:45.747Z,8.70
2022-09-07T06:25:19.217Z,9.90
2022-09-07T06:25:52.562Z,9.90
2022-09-07T06:26:25.716Z,8.70
2022-09-07T06:26:59.168Z,8.10
2022-09-07T06:27:32.255Z,8.90
2022-09-07T06:28:05.383Z,8.20
2022-09-07T06:28:41.536Z,9.60
2022-09-07T06:29:15.050Z,9.80
2022-09-07T06:29:48.236Z,9.20
2022-09-07T06:30:21.628Z,10.20
2022-09-07T06:30:59.652Z,9.20
2022-09-07T06:31:33.242Z,9.70
2022-09-07T06:32:59.698Z,9.10
2022-09-07T06:33:33.067Z,7.50
2022-09-07T06:34:06.429Z,7.90
2022-09-07T06:34:39.569Z,8.10
2022-09-07T06:35:13.511Z,7.20
2022-09-07T06:36:02.320Z,8.30
2022-09-07T06:36:35.450Z,7.90
2022-09-07T06:37:08.650Z,7.40
2022-09-07T06:37:42.751Z,8.00
2022-09-07T06:38:16.127Z,7.00
2022-09-07T06:38:50.568Z,8.70
2022-09-07T06:39:23.791Z,7.50
2022-09-07T06:39:57.161Z,8.10
2022-09-07T06:40:30.367Z,8.80
2022-09-07T06:41:59.656Z,7.30
2022-09-07T06:42:32.997Z,7.20
2022-09-07T06:43:06.223Z,7.10
2022-09-07T06:43:44.125Z,8.40
2022-09-07T06:44:19.590Z,8.70
2022-09-07T06:44:53.336Z,8.10
2022-09-07T06:45:28.688Z,7.60
2022-09-07T06:47:04.882Z,6.80
2022-09-07T06:47:39.235Z,8.00
2022-09-07T06:48:12.634Z,7.90
2022-09-07T06:48:45.807Z,6.90
2022-09-07T06:49:19.066Z,7.80
2022-09-07T06:49:52.247Z,7.10
2022-09-07T06:50:28.116Z,7.80
2022-09-07T06:51:01.977Z,8.50
2022-09-07T06:51:35.675Z,8.30
2022-09-07T06:52:08.961Z,7.30
2022-09-07T06:53:39.511Z,7.30
2022-09-07T06:55:08.986Z,7.20
2022-09-07T06:55:45.586Z,8.40
2022-09-07T06:56:19.746Z,7.40
2022-09-07T06:56:52.912Z,7.20
2022-09-07T06:57:27.469Z,7.10
2022-09-07T06:58:00.762Z,7.20
2022-09-07T06:58:37.011Z,6.30
2022-09-07T06:59:12.579Z,7.30
2022-09-07T06:59:45.809Z,7.30
2022-09-07T07:00:19.177Z,8.20
2022-09-07T07:00:53.006Z,6.80
2022-09-07T07:01:27.237Z,6.90
2022-09-07T07:02:00.648Z,7.50
2022-09-07T07:02:34.122Z,7.60
2022-09-07T07:03:07.264Z,8.10
2022-09-07T07:03:41.044Z,7.00
2022-09-07T07:04:14.500Z,8.40
2022-09-07T07:04:47.685Z,7.90
2022-09-07T07:05:21.118Z,7.50
2022-09-07T07:05:57.334Z,7.30
2022-09-07T07:06:35.310Z,6.60
2022-09-07T07:07:14.537Z,7.90
2022-09-07T07:07:47.770Z,6.90
2022-09-07T07:08:23.097Z,7.90
2022-09-07T07:08:56.261Z,7.70
2022-09-07T07:09:29.561Z,8.10
2022-09-07T07:10:02.794Z,8.10
2022-09-07T07:10:39.593Z,7.10
2022-09-07T07:11:16.242Z,8.30
2022-09-07T07:11:49.614Z,8.10
2022-09-07T07:12:58.582Z,8.00
2022-09-07T07:13:32.284Z,7.90
2022-09-07T07:14:05.777Z,8.00
2022-09-07T07:14:44.016Z,7.70
2022-09-07T07:15:18.296Z,7.30
2022-09-07T07:15:54.048Z,7.50
2022-09-07T07:16:27.566Z,8.10
2022-09-07T07:17:00.711Z,7.60
2022-09-07T07:17:33.927Z,7.50
2022-09-07T07:18:20.367Z,8.20
2022-09-07T07:18:58.317Z,9.90
2022-09-07T07:19:31.533Z,10.40
2022-09-07T07:20:05.403Z,11.30
2022-09-07T07:20:40.286Z,10.40
2022-09-07T07:21:15.750Z,10.50
2022-09-07T07:22:10.714Z,8.50
2022-09-07T07:22:46.718Z,9.60
2022-09-07T07:23:20.661Z,8.00
2022-09-07T07:23:54.244Z,7.80
2022-09-07T07:24:27.308Z,7.80
2022-09-07T07:25:00.377Z,7.90
2022-09-07T07:25:37.276Z,8.60
2022-09-07T07:26:12.168Z,8.40
2022-09-07T07:26:48.860Z,8.20
2022-09-07T07:27:22.389Z,7.20
2022-09-07T07:27:55.573Z,7.30
2022-09-07T07:29:23.911Z,7.00
2022-09-07T07:29:58.277Z,8.00
2022-09-07T07:30:31.582Z,6.80
2022-09-07T07:31:09.474Z,7.60
2022-09-07T07:31:44.437Z,8.80
2022-09-07T07:32:17.680Z,7.60
2022-09-07T07:32:50.873Z,7.90
2022-09-07T07:33:24.816Z,7.70
2022-09-07T07:33:58.181Z,7.20
2022-09-07T07:34:31.466Z,8.30
2022-09-07T07:35:05.706Z,8.90
2022-09-07T07:35:38.800Z,9.30
2022-09-07T07:36:18.076Z,10.20
2022-09-07T07:36:51.179Z,8.60
2022-09-07T07:37:28.016Z,8.10
2022-09-07T07:40:28.979Z,7.70
2022-09-07T07:42:01.602Z,10.90
2022-09-07T07:42:40.119Z,11.00
2022-09-07T07:43:13.543Z,9.40
2022-09-07T07:43:47.579Z,9.60
2022-09-07T07:44:21.573Z,10.60
2022-09-07T07:46:26.483Z,8.20
2022-09-07T07:46:59.905Z,8.90
2022-09-07T07:47:33.314Z,9.20
2022-09-07T07:48:06.947Z,7.80
2022-09-07T07:48:40.230Z,7.80
2022-09-07T07:49:13.767Z,9.10
2022-09-07T07:49:47.198Z,8.40
2022-09-07T07:50:35.744Z,8.80
2022-09-07T07:51:12.350Z,9.00
2022-09-07T07:53:41.651Z,8.80
2022-09-07T07:54:15.651Z,9.10
2022-09-07T07:54:48.778Z,8.70
2022-09-07T07:56:15.208Z,9.00
2022-09-07T07:56:48.248Z,9.80
2022-09-07T07:57:21.497Z,9.40
2022-09-07T07:57:54.585Z,9.70
2022-09-07T07:58:28.715Z,10.80
2022-09-07T07:59:02.036Z,10.60
2022-09-07T07:59:35.527Z,11.10
2022-09-07T08:00:09.627Z,11.60
2022-09-07T08:00:58.365Z,13.90
2022-09-07T08:01:31.699Z,11.50
2022-09-07T08:02:09.191Z,11.00
2022-09-07T08:02:42.486Z,10.10
2022-09-07T08:03:15.778Z,11.50
2022-09-07T08:03:49.360Z,12.50
2022-09-07T08:04:23.406Z,10.90
2022-09-07T08:04:56.626Z,10.40
2022-09-07T08:05:29.727Z,8.90
2022-09-07T08:06:11.780Z,7.90
2022-09-07T08:06:44.921Z,8.60
2022-09-07T08:07:18.053Z,10.40
2022-09-07T08:07:51.250Z,10.60
2022-09-07T08:08:24.450Z,9.40
2022-09-07T08:08:57.580Z,7.50
2022-09-07T08:09:30.745Z,7.60
2022-09-07T08:10:04.030Z,7.90
2022-09-07T08:10:37.309Z,7.80
2022-09-07T08:11:19.358Z,8.00
2022-09-07T08:11:52.656Z,7.50
2022-09-07T08:12:29.704Z,8.80
2022-09-07T08:13:03.168Z,8.20
2022-09-07T08:13:37.936Z,7.90
2022-09-07T08:14:11.256Z,7.60
2022-09-07T08:14:47.137Z,8.70
2022-09-07T08:15:20.208Z,8.40
2022-09-07T08:15:53.373Z,7.90